sensor_id;sensor_type;location;lat;lon;timestamp;P1;durP1;ratioP1;P2;durP2;ratioP2
19329;SDS011;9799;48.214;16.388;2022-11-20T00:00:40;24.77;;;15.90;;
19329;SDS011;9799;48.214;16.388;2022-11-20T00:04:01;27.83;;;18.13;;
19329;SDS011;9799;48.214;16.388;2022-11-20T00:07:23;25.33;;;16.27;;
19329;SDS011;9799;48.214;16.388;2022-11-20T00:10:45;26.70;;;17.40;;
19329;SDS011;9799;48.214;16.388;2022-11-20T00:14:08;26.77;;;17.73;;
19329;SDS011;9799;48.214;16.388;2022-11-20T00:17:30;26.20;;;16.60;;
19329;SDS011;9799;48.214;16.388;2022-11-20T00:20:51;25.90;;;16.47;;
19329;SDS011;9799;48.214;16.388;2022-11-20T00:24:13;27.67;;;17.27;;
19329;SDS011;9799;48.214;16.388;2022-11-20T00:27:35;26.53;;;17.47;;
19329;SDS011;9799;48.214;16.388;2022-11-20T00:31:00;27.80;;;17.93;;
19329;SDS011;9799;48.214;16.388;2022-11-20T00:34:22;25.37;;;16.63;;
19329;SDS011;9799;48.214;16.388;2022-11-20T00:37:43;26.10;;;16.33;;
19329;SDS011;9799;48.214;16.388;2022-11-20T00:41:06;25.73;;;16.40;;
19329;SDS011;9799;48.214;16.388;2022-11-20T00:44:30;25.97;;;16.33;;
19329;SDS011;9799;48.214;16.388;2022-11-20T00:47:51;26.10;;;16.50;;
19329;SDS011;9799;48.214;16.388;2022-11-20T00:51:13;26.20;;;17.43;;
19329;SDS011;9799;48.214;16.388;2022-11-20T00:54:36;29.50;;;17.37;;
19329;SDS011;9799;48.214;16.388;2022-11-20T00:57:57;28.80;;;17.47;;
19329;SDS011;9799;48.214;16.388;2022-11-20T01:01:20;31.17;;;17.00;;
19329;SDS011;9799;48.214;16.388;2022-11-20T01:04:44;29.03;;;17.50;;
19329;SDS011;9799;48.214;16.388;2022-11-20T01:08:05;24.60;;;16.67;;
19329;SDS011;9799;48.214;16.388;2022-11-20T01:11:27;27.83;;;17.20;;
19329;SDS011;9799;48.214;16.388;2022-11-20T01:14:50;27.30;;;17.17;;
19329;SDS011;9799;48.214;16.388;2022-11-20T01:18:13;27.87;;;17.13;;
19329;SDS011;9799;48.214;16.388;2022-11-20T01:21:35;28.70;;;17.53;;
19329;SDS011;9799;48.214;16.388;2022-11-20T01:24:58;26.60;;;16.13;;
19329;SDS011;9799;48.214;16.388;2022-11-20T01:28:20;25.87;;;15.60;;
19329;SDS011;9799;48.214;16.388;2022-11-20T01:31:41;29.17;;;17.20;;
19329;SDS011;9799;48.214;16.388;2022-11-20T01:35:05;28.43;;;17.47;;
19329;SDS011;9799;48.214;16.388;2022-11-20T01:38:28;29.07;;;17.97;;
19329;SDS011;9799;48.214;16.388;2022-11-20T01:41:50;23.63;;;15.90;;
19329;SDS011;9799;48.214;16.388;2022-11-20T01:45:50;31.70;;;19.07;;
19329;SDS011;9799;48.214;16.388;2022-11-20T01:49:21;25.03;;;15.73;;
19329;SDS011;9799;48.214;16.388;2022-11-20T01:52:52;25.17;;;17.20;;
19329;SDS011;9799;48.214;16.388;2022-11-20T01:56:17;27.50;;;17.23;;
19329;SDS011;9799;48.214;16.388;2022-11-20T01:59:38;27.33;;;16.73;;
19329;SDS011;9799;48.214;16.388;2022-11-20T02:03:03;32.33;;;18.87;;
19329;SDS011;9799;48.214;16.388;2022-11-20T02:06:27;27.43;;;17.53;;
19329;SDS011;9799;48.214;16.388;2022-11-20T02:09:52;29.00;;;16.73;;
19329;SDS011;9799;48.214;16.388;2022-11-20T02:13:14;26.77;;;17.40;;
19329;SDS011;9799;48.214;16.388;2022-11-20T02:16:53;27.10;;;16.43;;
19329;SDS011;9799;48.214;16.388;2022-11-20T02:20:15;26.97;;;17.40;;
19329;SDS011;9799;48.214;16.388;2022-11-20T02:23:38;24.33;;;16.80;;
19329;SDS011;9799;48.214;16.388;2022-11-20T02:27:07;30.17;;;19.27;;
19329;SDS011;9799;48.214;16.388;2022-11-20T02:30:31;36.47;;;17.63;;
19329;SDS011;9799;48.214;16.388;2022-11-20T02:33:54;27.30;;;18.07;;
19329;SDS011;9799;48.214;16.388;2022-11-20T02:37:16;28.20;;;18.13;;
19329;SDS011;9799;48.214;16.388;2022-11-20T02:40:38;28.50;;;18.47;;
19329;SDS011;9799;48.214;16.388;2022-11-20T02:44:01;25.40;;;16.93;;
19329;SDS011;9799;48.214;16.388;2022-11-20T02:47:23;32.43;;;18.53;;
19329;SDS011;9799;48.214;16.388;2022-11-20T02:50:44;31.27;;;17.73;;
19329;SDS011;9799;48.214;16.388;2022-11-20T02:54:05;27.63;;;17.73;;
19329;SDS011;9799;48.214;16.388;2022-11-20T02:57:27;30.50;;;18.00;;
19329;SDS011;9799;48.214;16.388;2022-11-20T03:00:49;27.70;;;17.20;;
19329;SDS011;9799;48.214;16.388;2022-11-20T03:04:10;28.57;;;17.90;;
19329;SDS011;9799;48.214;16.388;2022-11-20T03:07:31;28.73;;;18.17;;
19329;SDS011;9799;48.214;16.388;2022-11-20T03:10:53;28.57;;;17.70;;
19329;SDS011;9799;48.214;16.388;2022-11-20T03:14:15;31.57;;;18.93;;
19329;SDS011;9799;48.214;16.388;2022-11-20T03:17:38;31.30;;;18.73;;
19329;SDS011;9799;48.214;16.388;2022-11-20T03:20:59;32.30;;;18.77;;
19329;SDS011;9799;48.214;16.388;2022-11-20T03:24:22;32.53;;;18.77;;
19329;SDS011;9799;48.214;16.388;2022-11-20T03:27:43;25.23;;;17.10;;
19329;SDS011;9799;48.214;16.388;2022-11-20T03:31:06;29.57;;;17.30;;
19329;SDS011;9799;48.214;16.388;2022-11-20T03:34:30;24.97;;;16.37;;
19329;SDS011;9799;48.214;16.388;2022-11-20T03:37:51;29.37;;;18.20;;
19329;SDS011;9799;48.214;16.388;2022-11-20T03:41:13;31.00;;;19.10;;
19329;SDS011;9799;48.214;16.388;2022-11-20T03:44:37;32.20;;;18.33;;
19329;SDS011;9799;48.214;16.388;2022-11-20T03:47:58;31.03;;;18.63;;
19329;SDS011;9799;48.214;16.388;2022-11-20T03:51:21;33.27;;;18.30;;
19329;SDS011;9799;48.214;16.388;2022-11-20T03:54:44;28.53;;;18.80;;
19329;SDS011;9799;48.214;16.388;2022-11-20T03:58:05;34.00;;;18.97;;
19329;SDS011;9799;48.214;16.388;2022-11-20T04:01:28;29.73;;;18.97;;
19329;SDS011;9799;48.214;16.388;2022-11-20T04:04:51;32.47;;;17.93;;
19329;SDS011;9799;48.214;16.388;2022-11-20T04:08:14;30.53;;;19.17;;
19329;SDS011;9799;48.214;16.388;2022-11-20T04:11:35;32.17;;;19.60;;
19329;SDS011;9799;48.214;16.388;2022-11-20T04:14:57;29.40;;;18.90;;
19329;SDS011;9799;48.214;16.388;2022-11-20T04:18:19;30.30;;;18.87;;
19329;SDS011;9799;48.214;16.388;2022-11-20T04:21:40;31.10;;;18.83;;
19329;SDS011;9799;48.214;16.388;2022-11-20T04:25:02;36.53;;;18.80;;
19329;SDS011;9799;48.214;16.388;2022-11-20T04:28:24;32.83;;;19.10;;
19329;SDS011;9799;48.214;16.388;2022-11-20T04:31:45;29.23;;;18.90;;
19329;SDS011;9799;48.214;16.388;2022-11-20T04:35:07;30.00;;;19.50;;
19329;SDS011;9799;48.214;16.388;2022-11-20T04:38:28;32.23;;;18.57;;
19329;SDS011;9799;48.214;16.388;2022-11-20T04:41:51;32.20;;;19.77;;
19329;SDS011;9799;48.214;16.388;2022-11-20T04:45:32;32.30;;;19.70;;
19329;SDS011;9799;48.214;16.388;2022-11-20T04:48:53;28.63;;;17.87;;
19329;SDS011;9799;48.214;16.388;2022-11-20T04:52:15;33.93;;;19.17;;
19329;SDS011;9799;48.214;16.388;2022-11-20T04:55:36;33.47;;;20.07;;
19329;SDS011;9799;48.214;16.388;2022-11-20T04:59:00;31.00;;;19.40;;
19329;SDS011;9799;48.214;16.388;2022-11-20T05:02:22;31.70;;;19.03;;
19329;SDS011;9799;48.214;16.388;2022-11-20T05:05:43;29.67;;;19.20;;
19329;SDS011;9799;48.214;16.388;2022-11-20T05:09:05;31.67;;;19.10;;
19329;SDS011;9799;48.214;16.388;2022-11-20T05:12:26;32.47;;;18.87;;
19329;SDS011;9799;48.214;16.388;2022-11-20T05:15:49;30.23;;;18.57;;
19329;SDS011;9799;48.214;16.388;2022-11-20T05:19:10;30.23;;;19.17;;
19329;SDS011;9799;48.214;16.388;2022-11-20T05:22:31;24.83;;;16.43;;
19329;SDS011;9799;48.214;16.388;2022-11-20T05:25:52;24.87;;;16.73;;
19329;SDS011;9799;48.214;16.388;2022-11-20T05:29:14;27.83;;;17.50;;
19329;SDS011;9799;48.214;16.388;2022-11-20T05:32:36;27.83;;;18.87;;
19329;SDS011;9799;48.214;16.388;2022-11-20T05:35:58;30.33;;;17.07;;
19329;SDS011;9799;48.214;16.388;2022-11-20T05:39:19;28.47;;;18.93;;
19329;SDS011;9799;48.214;16.388;2022-11-20T05:42:40;29.83;;;19.07;;
19329;SDS011;9799;48.214;16.388;2022-11-20T05:46:03;28.53;;;18.00;;
19329;SDS011;9799;48.214;16.388;2022-11-20T05:49:26;27.97;;;18.60;;
19329;SDS011;9799;48.214;16.388;2022-11-20T05:52:47;26.90;;;16.50;;
19329;SDS011;9799;48.214;16.388;2022-11-20T05:56:09;31.57;;;18.37;;
19329;SDS011;9799;48.214;16.388;2022-11-20T05:59:32;27.87;;;17.97;;
19329;SDS011;9799;48.214;16.388;2022-11-20T06:02:53;29.70;;;17.90;;
19329;SDS011;9799;48.214;16.388;2022-11-20T06:06:16;30.67;;;17.87;;
19329;SDS011;9799;48.214;16.388;2022-11-20T06:09:38;30.77;;;18.17;;
19329;SDS011;9799;48.214;16.388;2022-11-20T06:12:59;29.67;;;17.30;;
19329;SDS011;9799;48.214;16.388;2022-11-20T06:16:20;30.93;;;18.40;;
19329;SDS011;9799;48.214;16.388;2022-11-20T06:19:41;28.53;;;17.80;;
19329;SDS011;9799;48.214;16.388;2022-11-20T06:23:04;29.07;;;17.90;;
19329;SDS011;9799;48.214;16.388;2022-11-20T06:26:26;31.90;;;18.50;;
19329;SDS011;9799;48.214;16.388;2022-11-20T06:29:47;30.90;;;18.83;;
19329;SDS011;9799;48.214;16.388;2022-11-20T06:33:09;28.43;;;17.67;;
19329;SDS011;9799;48.214;16.388;2022-11-20T06:36:30;29.97;;;19.50;;
19329;SDS011;9799;48.214;16.388;2022-11-20T06:39:52;29.83;;;18.00;;
19329;SDS011;9799;48.214;16.388;2022-11-20T06:43:13;29.77;;;18.77;;
19329;SDS011;9799;48.214;16.388;2022-11-20T06:46:37;31.83;;;20.27;;
19329;SDS011;9799;48.214;16.388;2022-11-20T06:49:59;32.07;;;19.87;;
19329;SDS011;9799;48.214;16.388;2022-11-20T06:53:20;26.93;;;18.57;;
19329;SDS011;9799;48.214;16.388;2022-11-20T06:56:43;30.40;;;19.03;;
19329;SDS011;9799;48.214;16.388;2022-11-20T07:00:08;35.50;;;20.00;;
19329;SDS011;9799;48.214;16.388;2022-11-20T07:03:30;30.60;;;19.83;;
19329;SDS011;9799;48.214;16.388;2022-11-20T07:06:51;35.67;;;19.67;;
19329;SDS011;9799;48.214;16.388;2022-11-20T07:10:13;30.70;;;18.67;;
19329;SDS011;9799;48.214;16.388;2022-11-20T07:13:35;31.47;;;19.67;;
19329;SDS011;9799;48.214;16.388;2022-11-20T07:16:56;31.43;;;18.60;;
19329;SDS011;9799;48.214;16.388;2022-11-20T07:20:17;32.70;;;19.23;;
19329;SDS011;9799;48.214;16.388;2022-11-20T07:23:39;33.67;;;19.07;;
19329;SDS011;9799;48.214;16.388;2022-11-20T07:27:00;28.53;;;19.33;;
19329;SDS011;9799;48.214;16.388;2022-11-20T07:30:22;30.43;;;19.60;;
19329;SDS011;9799;48.214;16.388;2022-11-20T07:33:44;33.73;;;20.80;;
19329;SDS011;9799;48.214;16.388;2022-11-20T07:37:05;32.17;;;19.50;;
19329;SDS011;9799;48.214;16.388;2022-11-20T07:40:26;32.37;;;20.33;;
19329;SDS011;9799;48.214;16.388;2022-11-20T07:43:47;31.13;;;20.43;;
19329;SDS011;9799;48.214;16.388;2022-11-20T07:47:10;32.07;;;20.23;;
19329;SDS011;9799;48.214;16.388;2022-11-20T07:50:31;32.53;;;19.80;;
19329;SDS011;9799;48.214;16.388;2022-11-20T07:53:52;29.90;;;19.27;;
19329;SDS011;9799;48.214;16.388;2022-11-20T07:57:13;36.33;;;20.30;;
19329;SDS011;9799;48.214;16.388;2022-11-20T08:00:34;31.70;;;20.43;;
19329;SDS011;9799;48.214;16.388;2022-11-20T08:03:57;31.53;;;19.00;;
19329;SDS011;9799;48.214;16.388;2022-11-20T08:07:18;33.60;;;19.27;;
19329;SDS011;9799;48.214;16.388;2022-11-20T08:10:39;32.90;;;21.17;;
19329;SDS011;9799;48.214;16.388;2022-11-20T08:14:00;34.57;;;21.23;;
19329;SDS011;9799;48.214;16.388;2022-11-20T08:17:33;35.53;;;21.57;;
19329;SDS011;9799;48.214;16.388;2022-11-20T08:20:55;36.03;;;20.20;;
19329;SDS011;9799;48.214;16.388;2022-11-20T08:24:17;37.23;;;21.87;;
19329;SDS011;9799;48.214;16.388;2022-11-20T08:27:38;33.80;;;20.87;;
19329;SDS011;9799;48.214;16.388;2022-11-20T08:30:59;40.43;;;22.70;;
19329;SDS011;9799;48.214;16.388;2022-11-20T08:34:23;35.93;;;21.63;;
19329;SDS011;9799;48.214;16.388;2022-11-20T08:37:47;36.43;;;21.90;;
19329;SDS011;9799;48.214;16.388;2022-11-20T08:41:08;32.63;;;20.73;;
19329;SDS011;9799;48.214;16.388;2022-11-20T08:44:45;35.17;;;20.13;;
19329;SDS011;9799;48.214;16.388;2022-11-20T08:48:06;39.97;;;24.23;;
19329;SDS011;9799;48.214;16.388;2022-11-20T08:51:27;69.53;;;46.03;;
19329;SDS011;9799;48.214;16.388;2022-11-20T08:54:49;52.43;;;34.03;;
19329;SDS011;9799;48.214;16.388;2022-11-20T08:58:11;36.17;;;23.40;;
19329;SDS011;9799;48.214;16.388;2022-11-20T09:01:32;40.13;;;24.47;;
19329;SDS011;9799;48.214;16.388;2022-11-20T09:04:53;36.27;;;23.03;;
19329;SDS011;9799;48.214;16.388;2022-11-20T09:08:14;36.73;;;21.60;;
19329;SDS011;9799;48.214;16.388;2022-11-20T09:11:37;37.03;;;22.47;;
19329;SDS011;9799;48.214;16.388;2022-11-20T09:14:58;34.77;;;21.97;;
19329;SDS011;9799;48.214;16.388;2022-11-20T09:18:19;36.37;;;23.00;;
19329;SDS011;9799;48.214;16.388;2022-11-20T09:21:41;35.97;;;22.47;;
19329;SDS011;9799;48.214;16.388;2022-11-20T09:25:02;36.93;;;22.60;;
19329;SDS011;9799;48.214;16.388;2022-11-20T09:28:25;34.40;;;20.27;;
19329;SDS011;9799;48.214;16.388;2022-11-20T09:31:47;35.27;;;20.77;;
19329;SDS011;9799;48.214;16.388;2022-11-20T09:35:08;40.43;;;22.33;;
19329;SDS011;9799;48.214;16.388;2022-11-20T09:38:29;37.97;;;23.77;;
19329;SDS011;9799;48.214;16.388;2022-11-20T09:42:01;32.23;;;21.53;;
19329;SDS011;9799;48.214;16.388;2022-11-20T09:45:38;38.23;;;23.07;;
19329;SDS011;9799;48.214;16.388;2022-11-20T09:49:15;37.13;;;22.00;;
19329;SDS011;9799;48.214;16.388;2022-11-20T09:52:45;45.97;;;26.00;;
19329;SDS011;9799;48.214;16.388;2022-11-20T09:56:15;34.13;;;21.17;;
19329;SDS011;9799;48.214;16.388;2022-11-20T09:59:39;35.83;;;21.67;;
19329;SDS011;9799;48.214;16.388;2022-11-20T10:03:05;36.60;;;22.87;;
19329;SDS011;9799;48.214;16.388;2022-11-20T10:06:34;34.97;;;21.53;;
19329;SDS011;9799;48.214;16.388;2022-11-20T10:10:01;37.10;;;22.63;;
19329;SDS011;9799;48.214;16.388;2022-11-20T10:13:27;46.27;;;26.57;;
19329;SDS011;9799;48.214;16.388;2022-11-20T10:17:00;49.27;;;29.57;;
19329;SDS011;9799;48.214;16.388;2022-11-20T10:20:32;40.13;;;24.10;;
19329;SDS011;9799;48.214;16.388;2022-11-20T10:24:08;36.70;;;22.67;;
19329;SDS011;9799;48.214;16.388;2022-11-20T10:28:06;39.33;;;23.40;;
19329;SDS011;9799;48.214;16.388;2022-11-20T10:31:39;38.13;;;22.90;;
19329;SDS011;9799;48.214;16.388;2022-11-20T10:35:03;47.53;;;25.13;;
19329;SDS011;9799;48.214;16.388;2022-11-20T10:38:31;41.07;;;23.83;;
19329;SDS011;9799;48.214;16.388;2022-11-20T10:41:57;40.67;;;23.27;;
19329;SDS011;9799;48.214;16.388;2022-11-20T10:45:21;38.13;;;23.27;;
19329;SDS011;9799;48.214;16.388;2022-11-20T10:48:53;36.17;;;21.67;;
19329;SDS011;9799;48.214;16.388;2022-11-20T10:52:16;34.70;;;21.27;;
19329;SDS011;9799;48.214;16.388;2022-11-20T10:55:48;33.00;;;22.03;;
19329;SDS011;9799;48.214;16.388;2022-11-20T11:03:14;41.80;;;23.53;;
19329;SDS011;9799;48.214;16.388;2022-11-20T11:06:45;34.03;;;20.93;;
19329;SDS011;9799;48.214;16.388;2022-11-20T11:10:14;41.07;;;25.13;;
19329;SDS011;9799;48.214;16.388;2022-11-20T11:13:46;38.80;;;22.50;;
19329;SDS011;9799;48.214;16.388;2022-11-20T11:17:17;42.20;;;24.07;;
19329;SDS011;9799;48.214;16.388;2022-11-20T11:20:49;38.43;;;23.43;;
19329;SDS011;9799;48.214;16.388;2022-11-20T11:24:15;46.23;;;25.17;;
19329;SDS011;9799;48.214;16.388;2022-11-20T11:27:45;41.40;;;25.00;;
19329;SDS011;9799;48.214;16.388;2022-11-20T11:31:08;40.20;;;24.20;;
19329;SDS011;9799;48.214;16.388;2022-11-20T11:34:30;35.17;;;23.27;;
19329;SDS011;9799;48.214;16.388;2022-11-20T11:37:52;41.73;;;24.20;;
19329;SDS011;9799;48.214;16.388;2022-11-20T11:41:25;38.37;;;23.43;;
19329;SDS011;9799;48.214;16.388;2022-11-20T11:44:50;36.97;;;23.60;;
19329;SDS011;9799;48.214;16.388;2022-11-20T11:48:29;42.23;;;23.87;;
19329;SDS011;9799;48.214;16.388;2022-11-20T11:52:02;37.83;;;23.10;;
19329;SDS011;9799;48.214;16.388;2022-11-20T11:55:34;40.07;;;22.20;;
19329;SDS011;9799;48.214;16.388;2022-11-20T11:58:59;36.53;;;23.13;;
19329;SDS011;9799;48.214;16.388;2022-11-20T12:02:35;37.67;;;23.27;;
19329;SDS011;9799;48.214;16.388;2022-11-20T12:06:00;38.93;;;23.43;;
19329;SDS011;9799;48.214;16.388;2022-11-20T12:09:31;39.07;;;23.40;;
19329;SDS011;9799;48.214;16.388;2022-11-20T12:13:00;40.00;;;25.03;;
19329;SDS011;9799;48.214;16.388;2022-11-20T12:16:24;37.43;;;23.60;;
19329;SDS011;9799;48.214;16.388;2022-11-20T12:19:46;39.67;;;24.60;;
19329;SDS011;9799;48.214;16.388;2022-11-20T12:23:09;37.03;;;24.40;;
19329;SDS011;9799;48.214;16.388;2022-11-20T12:26:43;38.83;;;23.90;;
19329;SDS011;9799;48.214;16.388;2022-11-20T12:30:15;43.57;;;24.87;;
19329;SDS011;9799;48.214;16.388;2022-11-20T12:33:42;40.30;;;24.20;;
19329;SDS011;9799;48.214;16.388;2022-11-20T12:37:19;40.07;;;23.80;;
19329;SDS011;9799;48.214;16.388;2022-11-20T12:40:52;39.27;;;24.10;;
19329;SDS011;9799;48.214;16.388;2022-11-20T12:44:27;48.77;;;30.00;;
19329;SDS011;9799;48.214;16.388;2022-11-20T12:48:34;38.23;;;23.23;;
19329;SDS011;9799;48.214;16.388;2022-11-20T12:55:46;41.37;;;23.47;;
19329;SDS011;9799;48.214;16.388;2022-11-20T12:59:18;36.30;;;23.60;;
19329;SDS011;9799;48.214;16.388;2022-11-20T13:06:57;36.67;;;23.33;;
19329;SDS011;9799;48.214;16.388;2022-11-20T13:10:23;38.57;;;23.00;;
19329;SDS011;9799;48.214;16.388;2022-11-20T13:13:58;39.17;;;23.30;;
19329;SDS011;9799;48.214;16.388;2022-11-20T13:17:40;38.37;;;23.57;;
19329;SDS011;9799;48.214;16.388;2022-11-20T13:21:15;34.63;;;23.77;;
19329;SDS011;9799;48.214;16.388;2022-11-20T13:24:37;37.83;;;23.33;;
19329;SDS011;9799;48.214;16.388;2022-11-20T13:27:59;41.87;;;23.97;;
19329;SDS011;9799;48.214;16.388;2022-11-20T13:31:27;41.23;;;23.97;;
19329;SDS011;9799;48.214;16.388;2022-11-20T13:34:53;40.90;;;24.83;;
19329;SDS011;9799;48.214;16.388;2022-11-20T13:38:16;37.47;;;24.37;;
19329;SDS011;9799;48.214;16.388;2022-11-20T13:41:38;37.77;;;24.07;;
19329;SDS011;9799;48.214;16.388;2022-11-20T13:45:00;40.93;;;24.63;;
19329;SDS011;9799;48.214;16.388;2022-11-20T13:48:24;37.30;;;24.23;;
19329;SDS011;9799;48.214;16.388;2022-11-20T13:51:51;42.87;;;23.83;;
19329;SDS011;9799;48.214;16.388;2022-11-20T13:55:23;35.20;;;22.80;;
19329;SDS011;9799;48.214;16.388;2022-11-20T13:58:54;34.90;;;22.53;;
19329;SDS011;9799;48.214;16.388;2022-11-20T14:02:25;38.20;;;24.93;;
19329;SDS011;9799;48.214;16.388;2022-11-20T14:05:50;35.13;;;22.73;;
19329;SDS011;9799;48.214;16.388;2022-11-20T14:09:26;38.33;;;22.07;;
19329;SDS011;9799;48.214;16.388;2022-11-20T14:12:49;36.53;;;23.23;;
19329;SDS011;9799;48.214;16.388;2022-11-20T14:16:11;37.13;;;22.93;;
19329;SDS011;9799;48.214;16.388;2022-11-20T14:19:35;41.53;;;24.23;;
19329;SDS011;9799;48.214;16.388;2022-11-20T14:22:59;38.10;;;22.17;;
19329;SDS011;9799;48.214;16.388;2022-11-20T14:26:24;35.57;;;23.77;;
19329;SDS011;9799;48.214;16.388;2022-11-20T14:29:47;39.30;;;24.70;;
19329;SDS011;9799;48.214;16.388;2022-11-20T14:33:11;34.93;;;21.60;;
19329;SDS011;9799;48.214;16.388;2022-11-20T14:36:35;33.73;;;22.93;;
19329;SDS011;9799;48.214;16.388;2022-11-20T14:39:58;35.07;;;22.53;;
19329;SDS011;9799;48.214;16.388;2022-11-20T14:43:23;37.27;;;23.50;;
19329;SDS011;9799;48.214;16.388;2022-11-20T14:46:46;39.63;;;23.63;;
19329;SDS011;9799;48.214;16.388;2022-11-20T14:50:12;37.27;;;22.33;;
19329;SDS011;9799;48.214;16.388;2022-11-20T14:53:36;37.27;;;22.80;;
19329;SDS011;9799;48.214;16.388;2022-11-20T14:57:00;37.03;;;22.50;;
19329;SDS011;9799;48.214;16.388;2022-11-20T15:00:28;41.30;;;25.20;;
19329;SDS011;9799;48.214;16.388;2022-11-20T15:03:57;40.27;;;24.90;;
19329;SDS011;9799;48.214;16.388;2022-11-20T15:07:24;38.50;;;24.40;;
19329;SDS011;9799;48.214;16.388;2022-11-20T15:10:48;36.80;;;23.27;;
19329;SDS011;9799;48.214;16.388;2022-11-20T15:14:14;35.77;;;21.90;;
19329;SDS011;9799;48.214;16.388;2022-11-20T15:17:38;35.50;;;23.23;;
19329;SDS011;9799;48.214;16.388;2022-11-20T15:21:03;38.57;;;24.00;;
19329;SDS011;9799;48.214;16.388;2022-11-20T15:24:31;38.90;;;24.47;;
19329;SDS011;9799;48.214;16.388;2022-11-20T15:27:54;37.80;;;23.40;;
19329;SDS011;9799;48.214;16.388;2022-11-20T15:31:17;39.53;;;24.03;;
19329;SDS011;9799;48.214;16.388;2022-11-20T15:34:42;35.20;;;23.47;;
19329;SDS011;9799;48.214;16.388;2022-11-20T15:38:07;38.07;;;24.03;;
19329;SDS011;9799;48.214;16.388;2022-11-20T15:41:30;36.90;;;24.57;;
19329;SDS011;9799;48.214;16.388;2022-11-20T15:44:53;37.97;;;24.20;;
19329;SDS011;9799;48.214;16.388;2022-11-20T15:48:18;44.93;;;29.30;;
19329;SDS011;9799;48.214;16.388;2022-11-20T15:51:44;45.20;;;27.87;;
19329;SDS011;9799;48.214;16.388;2022-11-20T15:55:09;42.30;;;27.00;;
19329;SDS011;9799;48.214;16.388;2022-11-20T15:58:31;38.50;;;24.37;;
19329;SDS011;9799;48.214;16.388;2022-11-20T16:01:53;35.57;;;23.70;;
19329;SDS011;9799;48.214;16.388;2022-11-20T16:05:16;38.70;;;24.50;;
19329;SDS011;9799;48.214;16.388;2022-11-20T16:08:40;38.13;;;24.47;;
19329;SDS011;9799;48.214;16.388;2022-11-20T16:12:04;43.30;;;26.30;;
19329;SDS011;9799;48.214;16.388;2022-11-20T16:15:50;42.33;;;27.50;;
19329;SDS011;9799;48.214;16.388;2022-11-20T16:19:15;40.20;;;26.13;;
19329;SDS011;9799;48.214;16.388;2022-11-20T16:22:38;44.10;;;26.90;;
19329;SDS011;9799;48.214;16.388;2022-11-20T16:26:10;39.30;;;26.17;;
19329;SDS011;9799;48.214;16.388;2022-11-20T16:29:32;41.07;;;26.47;;
19329;SDS011;9799;48.214;16.388;2022-11-20T16:32:55;38.77;;;25.07;;
19329;SDS011;9799;48.214;16.388;2022-11-20T16:36:17;36.60;;;23.23;;
19329;SDS011;9799;48.214;16.388;2022-11-20T16:39:40;38.53;;;24.67;;
19329;SDS011;9799;48.214;16.388;2022-11-20T16:43:08;43.07;;;26.00;;
19329;SDS011;9799;48.214;16.388;2022-11-20T16:46:32;41.87;;;25.97;;
19329;SDS011;9799;48.214;16.388;2022-11-20T16:49:54;44.27;;;27.10;;
19329;SDS011;9799;48.214;16.388;2022-11-20T16:53:18;44.13;;;28.90;;
19329;SDS011;9799;48.214;16.388;2022-11-20T16:56:43;57.33;;;33.77;;
19329;SDS011;9799;48.214;16.388;2022-11-20T17:00:10;87.07;;;49.37;;
19329;SDS011;9799;48.214;16.388;2022-11-20T17:03:33;56.10;;;34.20;;
19329;SDS011;9799;48.214;16.388;2022-11-20T17:06:55;67.07;;;40.47;;
19329;SDS011;9799;48.214;16.388;2022-11-20T17:10:16;45.63;;;29.17;;
19329;SDS011;9799;48.214;16.388;2022-11-20T17:13:41;42.73;;;27.03;;
19329;SDS011;9799;48.214;16.388;2022-11-20T17:17:05;44.67;;;26.97;;
19329;SDS011;9799;48.214;16.388;2022-11-20T17:20:31;47.93;;;30.63;;
19329;SDS011;9799;48.214;16.388;2022-11-20T17:23:53;43.40;;;27.50;;
19329;SDS011;9799;48.214;16.388;2022-11-20T17:27:15;45.60;;;28.43;;
19329;SDS011;9799;48.214;16.388;2022-11-20T17:30:38;45.43;;;28.93;;
19329;SDS011;9799;48.214;16.388;2022-11-20T17:34:02;39.80;;;27.23;;
19329;SDS011;9799;48.214;16.388;2022-11-20T17:37:25;46.77;;;30.47;;
19329;SDS011;9799;48.214;16.388;2022-11-20T17:40:49;44.13;;;28.90;;
19329;SDS011;9799;48.214;16.388;2022-11-20T17:44:12;43.07;;;29.40;;
19329;SDS011;9799;48.214;16.388;2022-11-20T17:47:33;50.97;;;30.37;;
19329;SDS011;9799;48.214;16.388;2022-11-20T17:50:59;46.43;;;29.30;;
19329;SDS011;9799;48.214;16.388;2022-11-20T17:54:21;47.00;;;28.87;;
19329;SDS011;9799;48.214;16.388;2022-11-20T17:57:44;50.30;;;31.23;;
19329;SDS011;9799;48.214;16.388;2022-11-20T18:01:15;49.63;;;32.70;;
19329;SDS011;9799;48.214;16.388;2022-11-20T18:04:38;49.80;;;30.07;;
19329;SDS011;9799;48.214;16.388;2022-11-20T18:08:02;46.43;;;29.60;;
19329;SDS011;9799;48.214;16.388;2022-11-20T18:11:25;50.40;;;29.33;;
19329;SDS011;9799;48.214;16.388;2022-11-20T18:14:49;48.83;;;30.00;;
19329;SDS011;9799;48.214;16.388;2022-11-20T18:18:13;41.80;;;27.00;;
19329;SDS011;9799;48.214;16.388;2022-11-20T18:21:34;45.83;;;27.60;;
19329;SDS011;9799;48.214;16.388;2022-11-20T18:25:02;47.10;;;30.27;;
19329;SDS011;9799;48.214;16.388;2022-11-20T18:28:25;50.00;;;30.23;;
19329;SDS011;9799;48.214;16.388;2022-11-20T18:31:48;45.77;;;30.40;;
19329;SDS011;9799;48.214;16.388;2022-11-20T18:35:09;48.10;;;30.53;;
19329;SDS011;9799;48.214;16.388;2022-11-20T18:38:32;44.07;;;27.83;;
19329;SDS011;9799;48.214;16.388;2022-11-20T18:42:00;42.47;;;28.53;;
19329;SDS011;9799;48.214;16.388;2022-11-20T18:45:40;44.40;;;27.03;;
19329;SDS011;9799;48.214;16.388;2022-11-20T18:49:02;45.33;;;27.67;;
19329;SDS011;9799;48.214;16.388;2022-11-20T18:52:26;46.67;;;28.93;;
19329;SDS011;9799;48.214;16.388;2022-11-20T18:55:52;42.83;;;27.63;;
19329;SDS011;9799;48.214;16.388;2022-11-20T18:59:17;46.00;;;28.70;;
19329;SDS011;9799;48.214;16.388;2022-11-20T19:02:40;46.13;;;29.60;;
19329;SDS011;9799;48.214;16.388;2022-11-20T19:06:03;43.70;;;28.73;;
19329;SDS011;9799;48.214;16.388;2022-11-20T19:09:25;46.73;;;28.57;;
19329;SDS011;9799;48.214;16.388;2022-11-20T19:12:49;44.43;;;28.27;;
19329;SDS011;9799;48.214;16.388;2022-11-20T19:16:14;44.87;;;29.30;;
19329;SDS011;9799;48.214;16.388;2022-11-20T19:19:41;53.40;;;32.57;;
19329;SDS011;9799;48.214;16.388;2022-11-20T19:23:06;56.90;;;33.63;;
19329;SDS011;9799;48.214;16.388;2022-11-20T19:26:28;50.77;;;32.17;;
19329;SDS011;9799;48.214;16.388;2022-11-20T19:29:51;53.97;;;31.60;;
19329;SDS011;9799;48.214;16.388;2022-11-20T19:33:19;45.63;;;29.90;;
19329;SDS011;9799;48.214;16.388;2022-11-20T19:36:42;45.77;;;30.17;;
19329;SDS011;9799;48.214;16.388;2022-11-20T19:40:06;46.97;;;31.07;;
19329;SDS011;9799;48.214;16.388;2022-11-20T19:43:28;52.23;;;32.63;;
19329;SDS011;9799;48.214;16.388;2022-11-20T19:46:52;51.57;;;32.90;;
19329;SDS011;9799;48.214;16.388;2022-11-20T19:50:18;48.60;;;30.10;;
19329;SDS011;9799;48.214;16.388;2022-11-20T19:53:40;40.03;;;29.17;;
19329;SDS011;9799;48.214;16.388;2022-11-20T19:57:03;40.47;;;27.03;;
19329;SDS011;9799;48.214;16.388;2022-11-20T20:00:26;38.10;;;26.33;;
19329;SDS011;9799;48.214;16.388;2022-11-20T20:03:50;39.40;;;23.43;;
19329;SDS011;9799;48.214;16.388;2022-11-20T20:07:15;31.13;;;20.23;;